createdAt,value
2023-04-27T00:00:56.394Z,101262.79
2023-04-27T00:03:28.555Z,101258.19
2023-04-27T00:06:00.248Z,101259.98
2023-04-27T00:08:32.179Z,101262.73
2023-04-27T00:11:03.545Z,101267.02
2023-04-27T00:13:34.990Z,101269.53
2023-04-27T00:16:06.897Z,101271.88
2023-04-27T00:18:38.378Z,101269.48
2023-04-27T00:21:09.837Z,101261.29
2023-04-27T00:23:41.558Z,101260.46
2023-04-27T00:26:13.046Z,101255.38
2023-04-27T00:28:45.318Z,101250.19
2023-04-27T00:31:16.568Z,101250.72
2023-04-27T00:33:48.515Z,101255.94
2023-04-27T00:36:21.143Z,101260.02
2023-04-27T00:38:52.553Z,101263.89
2023-04-27T00:41:25.040Z,101262.71
2023-04-27T00:43:56.403Z,101264.74
2023-04-27T00:46:28.348Z,101264.41
2023-04-27T00:49:00.275Z,101270.05
2023-04-27T00:51:32.260Z,101272.54
2023-04-27T00:54:03.996Z,101263.69
2023-04-27T00:56:35.409Z,101266.83
2023-04-27T00:59:06.694Z,101267.91
2023-04-27T01:01:38.427Z,101268.10
2023-04-27T01:04:10.462Z,101272.19
2023-04-27T01:06:41.970Z,101272.80
2023-04-27T01:09:14.405Z,101272.65
2023-04-27T01:11:45.911Z,101269.62
2023-04-27T01:14:17.383Z,101271.75
2023-04-27T01:16:49.117Z,101267.83
2023-04-27T01:19:20.830Z,101268.84
2023-04-27T01:21:52.200Z,101273.66
2023-04-27T01:24:24.114Z,101278.49
2023-04-27T01:26:55.872Z,101277.30
2023-04-27T01:29:27.502Z,101273.40
2023-04-27T01:31:58.677Z,101263.58
2023-04-27T01:34:30.117Z,101264.92
2023-04-27T01:37:01.321Z,101261.03
2023-04-27T01:39:32.712Z,101261.23
2023-04-27T01:42:05.387Z,101262.08
2023-04-27T01:44:36.951Z,101261.04
2023-04-27T01:47:08.301Z,101259.55
2023-04-27T01:49:39.327Z,101257.16
2023-04-27T01:52:10.792Z,101258.95
2023-04-27T01:54:42.544Z,101259.00
2023-04-27T01:57:15.656Z,101255.86
2023-04-27T01:59:49.435Z,101255.73
2023-04-27T02:02:20.992Z,101260.58
2023-04-27T02:04:52.389Z,101260.36
2023-04-27T02:07:23.897Z,101262.14
2023-04-27T02:09:54.958Z,101259.80
2023-04-27T02:12:26.554Z,101259.64
2023-04-27T02:14:58.151Z,101260.88
2023-04-27T02:17:31.444Z,101254.27
2023-04-27T02:20:02.901Z,101259.73
2023-04-27T02:22:34.161Z,101263.10
2023-04-27T02:25:06.384Z,101265.20
2023-04-27T02:27:39.930Z,101268.67
2023-04-27T02:30:13.426Z,101266.41
2023-04-27T02:32:48.860Z,101262.76
2023-04-27T02:35:20.444Z,101265.53
2023-04-27T02:37:52.196Z,101262.20
2023-04-27T02:40:23.621Z,101262.14
2023-04-27T02:42:54.780Z,101262.33
2023-04-27T02:45:26.656Z,101261.86
2023-04-27T02:47:58.741Z,101260.08
2023-04-27T02:50:30.762Z,101256.39
2023-04-27T02:53:02.989Z,101257.13
2023-04-27T02:55:34.518Z,101257.35
2023-04-27T02:58:05.920Z,101253.60
2023-04-27T03:00:37.780Z,101257.79
2023-04-27T03:03:10.040Z,101260.00
2023-04-27T03:05:41.849Z,101261.46
2023-04-27T03:08:13.275Z,101262.59
2023-04-27T03:10:44.933Z,101266.56
2023-04-27T03:13:16.887Z,101269.66
2023-04-27T03:15:48.451Z,101271.59
2023-04-27T03:18:19.674Z,101272.02
2023-04-27T03:20:51.043Z,101276.13
2023-04-27T03:23:22.170Z,101278.80
2023-04-27T03:25:53.625Z,101284.05
2023-04-27T03:28:24.779Z,101284.21
2023-04-27T03:30:56.195Z,101285.98
2023-04-27T03:33:28.876Z,101292.56
2023-04-27T03:36:00.469Z,101291.72
2023-04-27T03:38:32.432Z,101289.50
2023-04-27T03:41:03.970Z,101288.44
2023-04-27T03:43:35.468Z,101285.11
2023-04-27T03:46:07.356Z,101288.41
2023-04-27T03:48:38.764Z,101289.22
2023-04-27T03:51:11.483Z,101292.75
2023-04-27T03:53:43.307Z,101290.66
2023-04-27T03:56:14.315Z,101287.34
2023-04-27T03:58:46.211Z,101283.27
2023-04-27T04:01:22.346Z,101283.95
2023-04-27T04:03:53.934Z,101277.83
2023-04-27T04:06:26.217Z,101274.52
2023-04-27T04:08:57.524Z,101278.03
2023-04-27T04:11:29.268Z,101279.77
2023-04-27T04:14:02.311Z,101282.17
2023-04-27T04:16:34.482Z,101282.78
2023-04-27T04:19:05.863Z,101281.20
2023-04-27T04:21:37.415Z,101282.02
2023-04-27T04:24:10.338Z,101283.61
2023-04-27T04:26:41.780Z,101289.41
2023-04-27T04:29:14.042Z,101293.63
2023-04-27T04:31:45.325Z,101298.93
2023-04-27T04:34:16.846Z,101300.96
2023-04-27T04:36:51.818Z,101299.38
2023-04-27T04:39:24.541Z,101308.31
2023-04-27T04:41:55.833Z,101309.12
2023-04-27T04:44:28.598Z,101313.49
2023-04-27T04:47:00.115Z,101317.03
2023-04-27T04:49:31.793Z,101322.27
2023-04-27T04:52:04.217Z,101324.56
2023-04-27T04:54:37.062Z,101326.80
2023-04-27T04:57:08.806Z,101327.05
2023-04-27T04:59:40.055Z,101329.27
2023-04-27T05:02:11.501Z,101329.61
2023-04-27T05:04:42.944Z,101329.81
2023-04-27T05:07:16.085Z,101328.07
2023-04-27T05:09:48.799Z,101333.84
2023-04-27T05:12:20.229Z,101332.89
2023-04-27T05:14:52.350Z,101333.56
2023-04-27T05:17:23.487Z,101335.34
2023-04-27T05:19:54.845Z,101339.54
2023-04-27T05:22:26.234Z,101341.84
2023-04-27T05:24:58.776Z,101343.40
2023-04-27T05:27:30.195Z,101349.14
2023-04-27T05:30:01.686Z,101350.73
2023-04-27T05:32:33.985Z,101353.80
2023-04-27T05:35:06.273Z,101354.83
2023-04-27T05:37:37.770Z,101352.60
2023-04-27T05:40:11.291Z,101347.45
2023-04-27T05:42:42.632Z,101351.73
2023-04-27T05:45:14.952Z,101350.98
2023-04-27T05:47:46.425Z,101353.36
2023-04-27T05:50:18.705Z,101357.09
2023-04-27T05:52:50.232Z,101365.58
2023-04-27T05:55:22.044Z,101366.64
2023-04-27T05:58:06.662Z,101370.17
2023-04-27T06:00:39.611Z,101378.66
2023-04-27T06:03:11.436Z,101377.75
2023-04-27T06:05:43.893Z,101381.27
2023-04-27T06:08:15.624Z,101388.38
2023-04-27T06:10:47.120Z,101387.27
2023-04-27T06:13:18.513Z,101392.27
2023-04-27T06:15:50.427Z,101396.35
2023-04-27T06:18:21.866Z,101395.50
2023-04-27T06:20:53.683Z,101392.95
2023-04-27T06:23:25.394Z,101393.48
2023-04-27T06:25:56.948Z,101396.66
2023-04-27T06:28:28.424Z,101403.15
2023-04-27T06:30:59.964Z,101408.63
2023-04-27T06:33:31.201Z,101406.34
2023-04-27T06:36:04.144Z,101402.79
2023-04-27T06:38:35.807Z,101403.25
2023-04-27T06:41:07.860Z,101402.89
2023-04-27T06:43:39.167Z,101402.70
2023-04-27T06:46:10.963Z,101402.50
2023-04-27T06:48:42.754Z,101403.34
2023-04-27T06:51:15.119Z,101405.52
2023-04-27T06:53:46.627Z,101407.79
2023-04-27T06:56:18.639Z,101413.42
2023-04-27T06:58:50.213Z,101417.08
2023-04-27T07:01:21.995Z,101420.11
2023-04-27T07:03:53.637Z,101423.73
2023-04-27T07:06:26.123Z,101424.30
2023-04-27T07:08:57.709Z,101420.20
2023-04-27T07:11:29.194Z,101418.66
2023-04-27T07:14:00.770Z,101420.25
2023-04-27T07:16:32.792Z,101421.92
2023-04-27T07:19:04.575Z,101419.84
2023-04-27T07:21:36.318Z,101419.91
2023-04-27T07:24:08.420Z,101421.86
2023-04-27T07:26:39.679Z,101422.38
2023-04-27T07:31:48.169Z,101413.57
2023-04-27T07:34:20.460Z,101417.04
2023-04-27T07:36:54.367Z,101415.91
2023-04-27T07:39:26.726Z,101419.62
2023-04-27T07:41:58.449Z,101418.19
2023-04-27T07:44:30.427Z,101424.20
2023-04-27T07:47:05.003Z,101421.64
2023-04-27T07:49:36.668Z,101419.27
2023-04-27T07:52:08.499Z,101420.94
2023-04-27T07:54:40.042Z,101415.43
2023-04-27T07:57:15.055Z,101415.97
2023-04-27T07:59:46.897Z,101420.77
2023-04-27T08:02:20.304Z,101426.45
2023-04-27T08:04:52.626Z,101426.80
2023-04-27T08:07:24.197Z,101433.99
2023-04-27T08:09:55.647Z,101439.98
2023-04-27T08:12:27.112Z,101436.86
2023-04-27T08:14:58.711Z,101433.70
2023-04-27T08:17:30.377Z,101431.98
2023-04-27T08:20:01.670Z,101426.52
2023-04-27T08:22:33.286Z,101428.27
2023-04-27T08:25:05.538Z,101438.24
2023-04-27T08:27:37.750Z,101449.02
2023-04-27T08:30:12.134Z,101453.64
2023-04-27T08:32:43.995Z,101452.11
2023-04-27T08:35:16.208Z,101454.39
2023-04-27T08:37:47.988Z,101458.77
2023-04-27T08:40:20.678Z,101453.91
2023-04-27T08:43:00.490Z,101442.61
2023-04-27T08:45:32.063Z,101444.50
2023-04-27T08:48:03.456Z,101451.25
2023-04-27T08:50:38.411Z,101456.61
2023-04-27T08:53:19.945Z,101458.06
2023-04-27T08:55:51.570Z,101460.05
2023-04-27T08:58:22.923Z,101464.26
2023-04-27T09:00:54.167Z,101467.27
2023-04-27T09:03:28.707Z,101470.21
2023-04-27T09:06:05.317Z,101480.26
2023-04-27T09:08:49.091Z,101482.77
2023-04-27T09:11:34.081Z,101486.13
2023-04-27T09:14:18.752Z,101481.05
2023-04-27T09:16:59.574Z,101475.80
2023-04-27T09:19:31.986Z,101476.63
2023-04-27T09:22:11.405Z,101475.65
2023-04-27T09:24:53.828Z,101475.90
2023-04-27T09:27:25.299Z,101482.39
2023-04-27T09:29:56.584Z,101488.48
2023-04-27T09:32:28.111Z,101492.55
2023-04-27T09:34:59.732Z,101496.55
2023-04-27T09:37:32.481Z,101493.20
2023-04-27T09:40:06.020Z,101493.61
2023-04-27T09:42:38.037Z,101494.30
2023-04-27T09:45:11.634Z,101498.66
2023-04-27T09:47:43.911Z,101497.09
2023-04-27T09:50:16.573Z,101490.88
2023-04-27T09:52:48.709Z,101493.54
2023-04-27T09:55:26.010Z,101493.13
2023-04-27T09:58:10.929Z,101493.30
2023-04-27T10:00:58.487Z,101495.08
2023-04-27T10:03:40.135Z,101494.19
2023-04-27T10:06:53.870Z,101488.86
2023-04-27T10:09:27.131Z,101483.25
2023-04-27T10:11:58.779Z,101484.15
2023-04-27T10:14:31.356Z,101482.86
2023-04-27T10:17:12.145Z,101478.95
2023-04-27T10:19:57.314Z,101475.54
2023-04-27T10:22:40.787Z,101473.71
2023-04-27T10:25:21.732Z,101471.19
2023-04-27T10:27:54.933Z,101468.77
2023-04-27T10:30:28.112Z,101467.48
2023-04-27T10:33:01.216Z,101468.73
2023-04-27T10:35:43.367Z,101468.72
2023-04-27T10:38:19.862Z,101469.96
2023-04-27T10:40:57.681Z,101478.74
2023-04-27T10:43:31.154Z,101477.06
2023-04-27T10:46:13.694Z,101477.61
2023-04-27T10:48:46.105Z,101482.55
2023-04-27T10:51:19.789Z,101483.23
2023-04-27T10:53:55.390Z,101482.66
2023-04-27T10:56:27.344Z,101477.75
2023-04-27T10:59:03.536Z,101480.55
2023-04-27T11:01:35.321Z,101478.51
2023-04-27T11:04:07.265Z,101486.83
2023-04-27T11:06:45.980Z,101485.09
2023-04-27T11:09:28.892Z,101488.30
2023-04-27T11:12:00.131Z,101490.37
2023-04-27T11:14:32.206Z,101489.70
2023-04-27T11:17:04.400Z,101489.85
2023-04-27T11:19:45.527Z,101490.36
2023-04-27T11:22:18.244Z,101491.54
2023-04-27T11:24:54.559Z,101491.84
2023-04-27T11:27:37.491Z,101496.79
2023-04-27T11:30:20.278Z,101500.73
2023-04-27T11:32:53.802Z,101498.27
2023-04-27T11:35:35.450Z,101496.97
2023-04-27T11:38:06.846Z,101497.70
2023-04-27T11:40:41.185Z,101500.40
2023-04-27T11:43:15.733Z,101496.42
2023-04-27T11:45:47.520Z,101500.53
2023-04-27T11:48:19.179Z,101501.49
2023-04-27T11:50:51.630Z,101496.86
2023-04-27T11:53:33.354Z,101495.13
2023-04-27T11:56:08.475Z,101495.72
2023-04-27T11:58:40.982Z,101496.55
2023-04-27T12:01:13.362Z,101499.34
2023-04-27T12:03:44.821Z,101495.90
2023-04-27T12:06:32.266Z,101494.41
2023-04-27T12:09:05.464Z,101496.58
2023-04-27T12:11:36.951Z,101495.23
2023-04-27T12:14:08.878Z,101493.11
2023-04-27T12:16:40.306Z,101496.78
2023-04-27T12:19:11.680Z,101498.70
2023-04-27T12:21:44.122Z,101498.98
2023-04-27T12:24:16.459Z,101501.44
2023-04-27T12:26:48.064Z,101504.08
2023-04-27T12:29:19.403Z,101501.55
2023-04-27T12:31:51.379Z,101498.19
2023-04-27T12:34:22.826Z,101497.48
2023-04-27T12:36:54.486Z,101498.31
2023-04-27T12:39:26.888Z,101502.80
2023-04-27T12:41:58.707Z,101497.98
2023-04-27T12:44:30.354Z,101494.54
2023-04-27T12:47:01.713Z,101495.80
2023-04-27T12:49:33.354Z,101497.52
2023-04-27T12:52:04.864Z,101500.70
2023-04-27T12:54:36.712Z,101494.42
2023-04-27T12:57:08.278Z,101495.71
2023-04-27T12:59:39.726Z,101495.16
2023-04-27T13:02:11.838Z,101496.41
2023-04-27T13:04:43.461Z,101490.79
2023-04-27T13:07:15.182Z,101491.58
2023-04-27T13:09:46.921Z,101493.88
2023-04-27T13:12:19.056Z,101495.37
2023-04-27T13:14:51.747Z,101501.86
2023-04-27T13:17:22.865Z,101500.48
2023-04-27T13:19:54.100Z,101501.91
2023-04-27T13:22:25.380Z,101498.06
2023-04-27T13:24:56.729Z,101498.70
2023-04-27T13:27:28.641Z,101496.07
2023-04-27T13:30:00.008Z,101498.23
2023-04-27T13:32:31.726Z,101498.90
2023-04-27T13:35:03.836Z,101497.83
2023-04-27T13:37:35.501Z,101499.80
2023-04-27T13:40:10.010Z,101497.60
2023-04-27T13:42:41.789Z,101494.86
2023-04-27T13:45:13.871Z,101496.02
2023-04-27T13:47:45.287Z,101497.34
2023-04-27T13:50:16.738Z,101501.61
2023-04-27T13:52:48.251Z,101498.43
2023-04-27T13:55:19.701Z,101496.35
2023-04-27T13:57:51.370Z,101489.98
2023-04-27T14:00:24.009Z,101488.80
2023-04-27T14:02:55.629Z,101484.52
2023-04-27T14:05:27.176Z,101482.22
2023-04-27T14:07:58.398Z,101477.52
2023-04-27T14:10:29.853Z,101475.77
2023-04-27T14:13:01.771Z,101477.91
2023-04-27T14:15:37.169Z,101477.61
2023-04-27T14:18:11.205Z,101475.21
2023-04-27T14:20:43.062Z,101475.69
2023-04-27T14:23:14.379Z,101477.58
2023-04-27T14:25:46.253Z,101477.23
2023-04-27T14:28:17.491Z,101474.61
2023-04-27T14:30:49.328Z,101473.98
2023-04-27T14:33:21.182Z,101473.83
2023-04-27T14:35:52.835Z,101473.33
2023-04-27T14:38:25.525Z,101471.80
2023-04-27T14:40:57.398Z,101470.20
2023-04-27T14:43:28.815Z,101473.88
2023-04-27T14:46:11.914Z,101467.84
2023-04-27T14:48:52.563Z,101462.14
2023-04-27T14:51:24.074Z,101463.66
2023-04-27T14:53:55.920Z,101468.77
2023-04-27T14:56:27.807Z,101463.95
2023-04-27T14:58:59.131Z,101462.91
2023-04-27T15:01:30.876Z,101463.67
2023-04-27T15:04:02.569Z,101466.70
2023-04-27T15:06:34.036Z,101463.48
2023-04-27T15:09:05.836Z,101466.81
2023-04-27T15:11:39.057Z,101466.94
2023-04-27T15:14:10.557Z,101468.36
2023-04-27T15:16:42.065Z,101467.10
2023-04-27T15:19:13.745Z,101466.80
2023-04-27T15:21:45.616Z,101471.64
2023-04-27T15:24:17.020Z,101473.11
2023-04-27T15:26:49.393Z,101476.38
2023-04-27T15:29:21.490Z,101475.73
2023-04-27T15:31:53.481Z,101469.21
2023-04-27T15:34:25.752Z,101471.17
2023-04-27T15:36:57.272Z,101469.95
2023-04-27T15:39:28.833Z,101463.77
2023-04-27T15:42:01.624Z,101461.67
2023-04-27T15:44:33.226Z,101466.73
2023-04-27T15:47:04.865Z,101464.89
2023-04-27T15:49:45.740Z,101463.84
2023-04-27T15:52:25.959Z,101465.02
2023-04-27T15:54:57.556Z,101463.41
2023-04-27T15:57:29.064Z,101463.48
2023-04-27T16:00:00.424Z,101463.64
2023-04-27T16:02:32.357Z,101463.89
2023-04-27T16:05:05.618Z,101465.08
2023-04-27T16:07:38.350Z,101468.75
2023-04-27T16:10:13.004Z,101469.88
2023-04-27T16:12:44.314Z,101473.39
2023-04-27T16:15:16.454Z,101471.20
2023-04-27T16:17:48.714Z,101464.02
2023-04-27T16:20:21.327Z,101464.90
2023-04-27T16:22:53.008Z,101466.80
2023-04-27T16:25:24.792Z,101465.69
2023-04-27T16:27:56.192Z,101463.13
2023-04-27T16:30:28.288Z,101461.11
2023-04-27T16:32:59.585Z,101461.81
2023-04-27T16:35:33.919Z,101460.64
2023-04-27T16:38:06.569Z,101458.59
2023-04-27T16:40:39.250Z,101458.14
2023-04-27T16:43:10.930Z,101457.48
2023-04-27T16:45:42.979Z,101454.71
2023-04-27T16:48:14.880Z,101455.15
2023-04-27T16:50:46.243Z,101455.54
2023-04-27T16:53:21.192Z,101460.62
2023-04-27T16:55:52.826Z,101462.46
2023-04-27T16:58:24.408Z,101463.29
2023-04-27T17:00:55.718Z,101465.14
2023-04-27T17:03:27.828Z,101465.27
2023-04-27T17:05:59.828Z,101465.80
2023-04-27T17:08:31.204Z,101464.11
2023-04-27T17:11:02.468Z,101464.25
2023-04-27T17:13:34.023Z,101463.90
2023-04-27T17:16:05.586Z,101465.32
2023-04-27T17:18:36.885Z,101465.04
2023-04-27T17:21:08.578Z,101463.37
2023-04-27T17:23:41.602Z,101465.19
2023-04-27T17:26:12.914Z,101463.33
2023-04-27T17:28:44.553Z,101459.62
2023-04-27T17:31:16.849Z,101463.91
2023-04-27T17:33:49.660Z,101462.33
2023-04-27T17:36:21.266Z,101459.73
2023-04-27T17:38:52.470Z,101456.73
2023-04-27T17:41:23.971Z,101455.81
2023-04-27T17:43:55.196Z,101457.84
2023-04-27T17:46:26.480Z,101459.67
2023-04-27T17:48:57.743Z,101460.05
2023-04-27T17:51:28.897Z,101466.15
2023-04-27T17:54:00.364Z,101470.93
2023-04-27T17:56:32.007Z,101471.44
2023-04-27T17:59:03.459Z,101471.60
2023-04-27T18:01:35.115Z,101473.74
2023-04-27T18:04:07.534Z,101476.45
2023-04-27T18:06:39.204Z,101477.21
2023-04-27T18:09:11.130Z,101476.68
2023-04-27T18:11:42.506Z,101477.95
2023-04-27T18:14:14.375Z,101477.46
2023-04-27T18:16:45.979Z,101475.15
2023-04-27T18:19:17.692Z,101472.35
2023-04-27T18:21:49.897Z,101476.28
2023-04-27T18:24:21.071Z,101484.99
2023-04-27T18:26:52.762Z,101484.09
2023-04-27T18:29:24.287Z,101486.69
2023-04-27T18:31:57.134Z,101487.73
2023-04-27T18:34:28.556Z,101486.62
2023-04-27T18:37:01.534Z,101489.13
2023-04-27T18:39:33.182Z,101490.91
2023-04-27T18:42:04.636Z,101491.02
2023-04-27T18:44:36.612Z,101498.11
2023-04-27T18:47:08.081Z,101498.41
2023-04-27T18:49:39.405Z,101505.66
2023-04-27T18:52:11.708Z,101508.50
2023-04-27T18:54:43.453Z,101510.48
2023-04-27T18:57:15.406Z,101514.49
2023-04-27T18:59:47.046Z,101514.58
2023-04-27T19:02:18.327Z,101515.44
2023-04-27T19:05:01.693Z,101524.65
2023-04-27T19:07:40.816Z,101533.57
2023-04-27T19:10:13.405Z,101533.90
2023-04-27T19:12:44.587Z,101543.34
2023-04-27T19:15:17.100Z,101547.49
2023-04-27T19:17:52.834Z,101555.02
2023-04-27T19:20:33.690Z,101554.98
2023-04-27T19:23:05.421Z,101555.88
2023-04-27T19:25:37.370Z,101553.69
2023-04-27T19:28:09.636Z,101557.65
2023-04-27T19:30:41.632Z,101557.27
2023-04-27T19:33:13.238Z,101563.90
2023-04-27T19:35:44.982Z,101568.42
2023-04-27T19:38:16.638Z,101572.94
2023-04-27T19:40:48.403Z,101574.80
2023-04-27T19:43:19.554Z,101578.75
2023-04-27T19:45:51.226Z,101583.98
2023-04-27T19:48:22.914Z,101587.16
2023-04-27T19:50:54.963Z,101584.44
2023-04-27T19:53:26.316Z,101588.11
2023-04-27T19:56:00.090Z,101588.72
2023-04-27T19:58:32.005Z,101593.63
2023-04-27T20:01:04.100Z,101598.29
2023-04-27T20:03:38.038Z,101597.00
2023-04-27T20:06:10.458Z,101601.84
2023-04-27T20:08:41.896Z,101601.56
2023-04-27T20:11:12.916Z,101602.98
2023-04-27T20:13:44.060Z,101606.16
2023-04-27T20:16:15.161Z,101607.11
2023-04-27T20:18:46.918Z,101606.15
2023-04-27T20:21:18.283Z,101609.77
2023-04-27T20:23:52.278Z,101600.58
2023-04-27T20:26:24.747Z,101596.73
2023-04-27T20:28:56.176Z,101598.27
2023-04-27T20:31:27.537Z,101598.58
2023-04-27T20:33:59.249Z,101600.72
2023-04-27T20:36:32.221Z,101607.52
2023-04-27T20:39:06.355Z,101608.94
2023-04-27T20:41:38.611Z,101605.69
2023-04-27T20:44:10.413Z,101602.77
2023-04-27T20:46:41.895Z,101606.67
2023-04-27T20:49:13.611Z,101604.61
2023-04-27T20:51:48.303Z,101600.55
2023-04-27T20:54:19.592Z,101594.85
2023-04-27T20:56:50.840Z,101598.98
2023-04-27T20:59:22.643Z,101600.84
2023-04-27T21:01:54.164Z,101598.09
2023-04-27T21:04:25.487Z,101597.42
2023-04-27T21:06:57.100Z,101598.63
2023-04-27T21:09:28.488Z,101600.63
2023-04-27T21:11:59.954Z,101606.55
2023-04-27T21:14:31.747Z,101605.44
2023-04-27T21:17:03.224Z,101605.00
2023-04-27T21:19:34.607Z,101601.18
2023-04-27T21:22:05.980Z,101595.51
2023-04-27T21:24:37.576Z,101600.98
2023-04-27T21:27:09.008Z,101602.33
2023-04-27T21:29:40.919Z,101600.64
2023-04-27T21:32:12.397Z,101601.42
2023-04-27T21:34:44.255Z,101599.85
2023-04-27T21:37:27.616Z,101597.83
2023-04-27T21:39:58.814Z,101600.60
2023-04-27T21:42:30.627Z,101601.41
2023-04-27T21:45:03.074Z,101600.80
2023-04-27T21:47:34.671Z,101599.14
2023-04-27T21:50:07.628Z,101597.85
2023-04-27T21:52:39.077Z,101604.55
2023-04-27T21:55:11.305Z,101601.62
2023-04-27T21:57:42.590Z,101605.66
2023-04-27T22:00:17.215Z,101609.14
2023-04-27T22:02:51.610Z,101610.88
2023-04-27T22:05:23.749Z,101616.84
2023-04-27T22:07:55.650Z,101616.60
2023-04-27T22:10:27.258Z,101618.21
2023-04-27T22:13:02.414Z,101619.98
2023-04-27T22:15:37.246Z,101621.67
2023-04-27T22:18:09.062Z,101624.19
2023-04-27T22:20:40.577Z,101621.17
2023-04-27T22:23:12.145Z,101631.41
2023-04-27T22:25:43.837Z,101635.29
2023-04-27T22:28:15.106Z,101640.08
2023-04-27T22:30:46.635Z,101642.31
2023-04-27T22:33:18.475Z,101636.97
2023-04-27T22:35:50.621Z,101636.27
2023-04-27T22:38:22.199Z,101633.70
2023-04-27T22:40:53.509Z,101632.24
2023-04-27T22:43:24.852Z,101631.06
2023-04-27T22:45:56.344Z,101628.62
2023-04-27T22:48:27.581Z,101632.50
2023-04-27T22:50:59.027Z,101632.55
2023-04-27T22:53:30.283Z,101634.16
2023-04-27T22:56:01.374Z,101633.45
2023-04-27T22:58:32.694Z,101633.61
2023-04-27T23:01:04.451Z,101631.41
2023-04-27T23:03:36.290Z,101633.20
2023-04-27T23:06:08.764Z,101636.08
2023-04-27T23:08:42.667Z,101635.36
2023-04-27T23:11:15.593Z,101632.95
2023-04-27T23:13:48.339Z,101630.85
2023-04-27T23:16:19.489Z,101635.09
2023-04-27T23:18:51.367Z,101631.66
2023-04-27T23:21:22.751Z,101631.93
2023-04-27T23:23:54.124Z,101635.88
2023-04-27T23:26:25.567Z,101632.86
2023-04-27T23:28:57.058Z,101634.27
2023-04-27T23:31:28.558Z,101638.20
2023-04-27T23:33:59.953Z,101644.05
2023-04-27T23:36:34.304Z,101645.10
2023-04-27T23:39:05.739Z,101647.39
2023-04-27T23:41:37.469Z,101645.78
2023-04-27T23:44:09.061Z,101650.31
2023-04-27T23:46:40.488Z,101650.98
2023-04-27T23:49:12.204Z,101651.89
2023-04-27T23:51:43.689Z,101649.70
2023-04-27T23:54:16.052Z,101650.37
2023-04-27T23:56:47.524Z,101652.34
2023-04-27T23:59:20.499Z,101654.31
